sensor_id;sensor_type;location;lat;lon;timestamp;P1;durP1;ratioP1;P2;durP2;ratioP2
53549;SDS011;73079;52.914;-0.982;2023-10-19T00:02:01;3.22;;;2.03;;
53549;SDS011;73079;52.914;-0.982;2023-10-19T00:04:29;5.55;;;2.50;;
53549;SDS011;73079;52.914;-0.982;2023-10-19T00:06:58;2.85;;;1.80;;
53549;SDS011;73079;52.914;-0.982;2023-10-19T00:09:24;2.33;;;1.50;;
53549;SDS011;73079;52.914;-0.982;2023-10-19T00:11:51;2.70;;;1.40;;
53549;SDS011;73079;52.914;-0.982;2023-10-19T00:14:17;3.30;;;1.80;;
53549;SDS011;73079;52.914;-0.982;2023-10-19T00:16:43;5.88;;;2.67;;
53549;SDS011;73079;52.914;-0.982;2023-10-19T00:19:18;5.75;;;3.03;;
53549;SDS011;73079;52.914;-0.982;2023-10-19T00:21:48;8.30;;;3.45;;
53549;SDS011;73079;52.914;-0.982;2023-10-19T00:24:16;2.22;;;1.33;;
53549;SDS011;73079;52.914;-0.982;2023-10-19T00:26:43;2.75;;;1.35;;
53549;SDS011;73079;52.914;-0.982;2023-10-19T00:29:09;2.70;;;1.20;;
53549;SDS011;73079;52.914;-0.982;2023-10-19T00:31:53;2.72;;;2.53;;
53549;SDS011;73079;52.914;-0.982;2023-10-19T00:34:21;3.75;;;3.25;;
53549;SDS011;73079;52.914;-0.982;2023-10-19T00:36:48;4.38;;;3.53;;
53549;SDS011;73079;52.914;-0.982;2023-10-19T00:39:16;7.28;;;3.13;;
53549;SDS011;73079;52.914;-0.982;2023-10-19T00:41:49;4.25;;;3.60;;
53549;SDS011;73079;52.914;-0.982;2023-10-19T00:44:17;4.25;;;3.78;;
53549;SDS011;73079;52.914;-0.982;2023-10-19T00:46:48;4.75;;;3.40;;
53549;SDS011;73079;52.914;-0.982;2023-10-19T00:49:28;3.40;;;3.10;;
53549;SDS011;73079;52.914;-0.982;2023-10-19T00:51:57;4.38;;;2.92;;
53549;SDS011;73079;52.914;-0.982;2023-10-19T00:54:29;2.90;;;2.60;;
53549;SDS011;73079;52.914;-0.982;2023-10-19T00:56:58;5.63;;;2.75;;
53549;SDS011;73079;52.914;-0.982;2023-10-19T00:59:31;3.35;;;2.75;;
53549;SDS011;73079;52.914;-0.982;2023-10-19T01:02:01;5.28;;;3.10;;
53549;SDS011;73079;52.914;-0.982;2023-10-19T01:04:42;4.75;;;3.30;;
53549;SDS011;73079;52.914;-0.982;2023-10-19T01:07:11;3.38;;;3.08;;
53549;SDS011;73079;52.914;-0.982;2023-10-19T01:09:41;3.67;;;3.10;;
53549;SDS011;73079;52.914;-0.982;2023-10-19T01:12:09;4.32;;;3.50;;
53549;SDS011;73079;52.914;-0.982;2023-10-19T01:15:00;4.38;;;3.13;;
53549;SDS011;73079;52.914;-0.982;2023-10-19T01:17:33;3.10;;;2.80;;
53549;SDS011;73079;52.914;-0.982;2023-10-19T01:20:05;3.08;;;2.78;;
53549;SDS011;73079;52.914;-0.982;2023-10-19T01:22:50;3.03;;;2.58;;
53549;SDS011;73079;52.914;-0.982;2023-10-19T01:25:32;3.78;;;2.80;;
53549;SDS011;73079;52.914;-0.982;2023-10-19T01:28:02;3.00;;;2.70;;
53549;SDS011;73079;52.914;-0.982;2023-10-19T01:30:32;4.78;;;4.00;;
53549;SDS011;73079;52.914;-0.982;2023-10-19T01:32:58;4.25;;;3.85;;
53549;SDS011;73079;52.914;-0.982;2023-10-19T01:35:24;4.63;;;4.10;;
53549;SDS011;73079;52.914;-0.982;2023-10-19T01:37:51;4.78;;;4.10;;
53549;SDS011;73079;52.914;-0.982;2023-10-19T01:40:17;5.80;;;4.45;;
53549;SDS011;73079;52.914;-0.982;2023-10-19T01:42:46;5.20;;;4.40;;
53549;SDS011;73079;52.914;-0.982;2023-10-19T01:45:12;5.00;;;4.50;;
53549;SDS011;73079;52.914;-0.982;2023-10-19T01:47:39;8.38;;;4.75;;
53549;SDS011;73079;52.914;-0.982;2023-10-19T01:50:06;4.30;;;3.58;;
53549;SDS011;73079;52.914;-0.982;2023-10-19T01:52:45;5.47;;;4.88;;
53549;SDS011;73079;52.914;-0.982;2023-10-19T01:55:12;4.82;;;4.32;;
53549;SDS011;73079;52.914;-0.982;2023-10-19T01:57:38;6.53;;;4.45;;
53549;SDS011;73079;52.914;-0.982;2023-10-19T02:00:05;5.10;;;4.53;;
53549;SDS011;73079;52.914;-0.982;2023-10-19T02:02:37;4.83;;;4.30;;
53549;SDS011;73079;52.914;-0.982;2023-10-19T02:05:03;4.95;;;4.38;;
53549;SDS011;73079;52.914;-0.982;2023-10-19T02:07:33;4.97;;;4.47;;
53549;SDS011;73079;52.914;-0.982;2023-10-19T02:10:00;4.60;;;3.72;;
53549;SDS011;73079;52.914;-0.982;2023-10-19T02:12:29;5.07;;;4.35;;
53549;SDS011;73079;52.914;-0.982;2023-10-19T02:14:54;4.40;;;4.00;;
53549;SDS011;73079;52.914;-0.982;2023-10-19T02:17:21;4.30;;;3.60;;
53549;SDS011;73079;52.914;-0.982;2023-10-19T02:19:48;5.25;;;3.58;;
53549;SDS011;73079;52.914;-0.982;2023-10-19T02:22:14;3.47;;;3.17;;
53549;SDS011;73079;52.914;-0.982;2023-10-19T02:24:42;4.47;;;3.08;;
53549;SDS011;73079;52.914;-0.982;2023-10-19T02:27:08;3.80;;;3.25;;
53549;SDS011;73079;52.914;-0.982;2023-10-19T02:29:35;3.00;;;2.70;;
53549;SDS011;73079;52.914;-0.982;2023-10-19T02:32:01;5.00;;;3.00;;
53549;SDS011;73079;52.914;-0.982;2023-10-19T02:34:30;3.78;;;3.20;;
53549;SDS011;73079;52.914;-0.982;2023-10-19T02:36:55;2.45;;;2.25;;
53549;SDS011;73079;52.914;-0.982;2023-10-19T02:39:21;2.97;;;2.65;;
53549;SDS011;73079;52.914;-0.982;2023-10-19T02:41:53;2.90;;;2.53;;
53549;SDS011;73079;52.914;-0.982;2023-10-19T02:44:21;2.83;;;2.55;;
53549;SDS011;73079;52.914;-0.982;2023-10-19T02:46:53;4.35;;;2.83;;
53549;SDS011;73079;52.914;-0.982;2023-10-19T02:49:24;3.40;;;3.05;;
53549;SDS011;73079;52.914;-0.982;2023-10-19T02:51:52;5.30;;;3.70;;
53549;SDS011;73079;52.914;-0.982;2023-10-19T02:54:19;4.05;;;3.65;;
53549;SDS011;73079;52.914;-0.982;2023-10-19T02:56:50;4.95;;;3.83;;
53549;SDS011;73079;52.914;-0.982;2023-10-19T02:59:19;8.93;;;5.10;;
53549;SDS011;73079;52.914;-0.982;2023-10-19T03:01:48;8.15;;;5.32;;
53549;SDS011;73079;52.914;-0.982;2023-10-19T03:04:17;7.97;;;5.20;;
53549;SDS011;73079;52.914;-0.982;2023-10-19T03:06:43;7.00;;;5.20;;
53549;SDS011;73079;52.914;-0.982;2023-10-19T03:09:09;8.77;;;4.60;;
53549;SDS011;73079;52.914;-0.982;2023-10-19T03:11:53;6.82;;;4.43;;
53549;SDS011;73079;52.914;-0.982;2023-10-19T03:14:22;7.47;;;3.78;;
53549;SDS011;73079;52.914;-0.982;2023-10-19T03:16:50;7.93;;;3.65;;
53549;SDS011;73079;52.914;-0.982;2023-10-19T03:19:18;10.88;;;3.50;;
53549;SDS011;73079;52.914;-0.982;2023-10-19T03:21:45;10.15;;;2.80;;
53549;SDS011;73079;52.914;-0.982;2023-10-19T03:24:20;11.88;;;2.50;;
53549;SDS011;73079;52.914;-0.982;2023-10-19T03:27:02;4.72;;;2.20;;
53549;SDS011;73079;52.914;-0.982;2023-10-19T03:29:34;9.13;;;2.22;;
53549;SDS011;73079;52.914;-0.982;2023-10-19T03:32:04;6.18;;;1.77;;
53549;SDS011;73079;52.914;-0.982;2023-10-19T03:34:32;5.93;;;2.03;;
53549;SDS011;73079;52.914;-0.982;2023-10-19T03:36:59;3.90;;;1.70;;
53549;SDS011;73079;52.914;-0.982;2023-10-19T03:39:31;7.10;;;2.00;;
53549;SDS011;73079;52.914;-0.982;2023-10-19T03:41:59;7.70;;;2.13;;
53549;SDS011;73079;52.914;-0.982;2023-10-19T03:44:24;9.40;;;2.20;;
53549;SDS011;73079;52.914;-0.982;2023-10-19T03:46:50;6.68;;;1.48;;
53549;SDS011;73079;52.914;-0.982;2023-10-19T03:49:38;12.00;;;2.67;;
53549;SDS011;73079;52.914;-0.982;2023-10-19T03:52:04;8.90;;;2.25;;
53549;SDS011;73079;52.914;-0.982;2023-10-19T03:54:33;13.05;;;2.80;;
53549;SDS011;73079;52.914;-0.982;2023-10-19T03:57:04;9.80;;;2.25;;
53549;SDS011;73079;52.914;-0.982;2023-10-19T03:59:32;6.28;;;2.05;;
53549;SDS011;73079;52.914;-0.982;2023-10-19T04:02:00;8.15;;;1.83;;
53549;SDS011;73079;52.914;-0.982;2023-10-19T04:04:32;7.60;;;2.00;;
53549;SDS011;73079;52.914;-0.982;2023-10-19T04:07:00;7.53;;;1.98;;
53549;SDS011;73079;52.914;-0.982;2023-10-19T04:09:35;7.45;;;2.15;;
53549;SDS011;73079;52.914;-0.982;2023-10-19T04:12:02;11.55;;;2.25;;
53549;SDS011;73079;52.914;-0.982;2023-10-19T04:14:28;8.35;;;2.00;;
53549;SDS011;73079;52.914;-0.982;2023-10-19T04:16:55;8.85;;;2.28;;
53549;SDS011;73079;52.914;-0.982;2023-10-19T04:19:21;13.32;;;2.47;;
53549;SDS011;73079;52.914;-0.982;2023-10-19T04:21:47;10.43;;;2.20;;
53549;SDS011;73079;52.914;-0.982;2023-10-19T04:24:17;10.18;;;2.03;;
53549;SDS011;73079;52.914;-0.982;2023-10-19T04:26:44;12.48;;;2.40;;
53549;SDS011;73079;52.914;-0.982;2023-10-19T04:29:10;12.93;;;2.70;;
53549;SDS011;73079;52.914;-0.982;2023-10-19T04:31:37;13.00;;;2.42;;
53549;SDS011;73079;52.914;-0.982;2023-10-19T04:34:06;8.18;;;2.33;;
53549;SDS011;73079;52.914;-0.982;2023-10-19T04:36:35;9.88;;;2.70;;
53549;SDS011;73079;52.914;-0.982;2023-10-19T04:39:01;6.68;;;2.05;;
53549;SDS011;73079;52.914;-0.982;2023-10-19T04:41:29;9.18;;;1.58;;
53549;SDS011;73079;52.914;-0.982;2023-10-19T04:43:54;5.32;;;1.70;;
53549;SDS011;73079;52.914;-0.982;2023-10-19T04:46:23;6.60;;;1.55;;
53549;SDS011;73079;52.914;-0.982;2023-10-19T04:48:49;6.68;;;1.67;;
53549;SDS011;73079;52.914;-0.982;2023-10-19T04:51:15;7.90;;;1.65;;
53549;SDS011;73079;52.914;-0.982;2023-10-19T04:53:43;8.25;;;1.63;;
53549;SDS011;73079;52.914;-0.982;2023-10-19T04:56:08;7.00;;;1.60;;
53549;SDS011;73079;52.914;-0.982;2023-10-19T04:58:36;7.65;;;1.58;;
53549;SDS011;73079;52.914;-0.982;2023-10-19T05:01:02;5.78;;;1.58;;
53549;SDS011;73079;52.914;-0.982;2023-10-19T05:03:29;7.55;;;2.00;;
53549;SDS011;73079;52.914;-0.982;2023-10-19T05:05:55;7.20;;;1.92;;
53549;SDS011;73079;52.914;-0.982;2023-10-19T05:08:22;9.50;;;2.13;;
53549;SDS011;73079;52.914;-0.982;2023-10-19T05:10:50;5.65;;;2.13;;
53549;SDS011;73079;52.914;-0.982;2023-10-19T05:13:17;8.35;;;2.35;;
53549;SDS011;73079;52.914;-0.982;2023-10-19T05:15:44;6.63;;;1.80;;
53549;SDS011;73079;52.914;-0.982;2023-10-19T05:18:10;9.43;;;2.47;;
53549;SDS011;73079;52.914;-0.982;2023-10-19T05:20:37;5.25;;;1.45;;
53549;SDS011;73079;52.914;-0.982;2023-10-19T05:23:06;9.23;;;2.65;;
53549;SDS011;73079;52.914;-0.982;2023-10-19T05:25:31;8.98;;;2.88;;
53549;SDS011;73079;52.914;-0.982;2023-10-19T05:27:57;11.52;;;3.22;;
53549;SDS011;73079;52.914;-0.982;2023-10-19T05:30:24;9.55;;;3.15;;
53549;SDS011;73079;52.914;-0.982;2023-10-19T05:32:52;17.90;;;3.70;;
53549;SDS011;73079;52.914;-0.982;2023-10-19T05:35:17;7.47;;;3.20;;
53549;SDS011;73079;52.914;-0.982;2023-10-19T05:40:17;13.32;;;4.35;;
53549;SDS011;73079;52.914;-0.982;2023-10-19T05:42:44;9.40;;;3.50;;
53549;SDS011;73079;52.914;-0.982;2023-10-19T05:45:11;14.45;;;4.05;;
53549;SDS011;73079;52.914;-0.982;2023-10-19T05:47:38;8.55;;;3.70;;
53549;SDS011;73079;52.914;-0.982;2023-10-19T05:50:05;10.20;;;3.50;;
53549;SDS011;73079;52.914;-0.982;2023-10-19T05:52:32;8.98;;;3.00;;
53549;SDS011;73079;52.914;-0.982;2023-10-19T05:54:57;8.02;;;3.33;;
53549;SDS011;73079;52.914;-0.982;2023-10-19T05:57:23;9.18;;;3.15;;
53549;SDS011;73079;52.914;-0.982;2023-10-19T05:59:49;8.15;;;2.67;;
53549;SDS011;73079;52.914;-0.982;2023-10-19T06:02:15;5.75;;;1.92;;
53549;SDS011;73079;52.914;-0.982;2023-10-19T06:04:40;7.35;;;2.60;;
53549;SDS011;73079;52.914;-0.982;2023-10-19T06:07:07;8.82;;;2.50;;
53549;SDS011;73079;52.914;-0.982;2023-10-19T06:09:35;8.90;;;2.22;;
53549;SDS011;73079;52.914;-0.982;2023-10-19T06:12:01;9.40;;;1.90;;
53549;SDS011;73079;52.914;-0.982;2023-10-19T06:14:27;4.72;;;1.80;;
53549;SDS011;73079;52.914;-0.982;2023-10-19T06:16:55;6.68;;;1.80;;
53549;SDS011;73079;52.914;-0.982;2023-10-19T06:19:21;9.48;;;1.98;;
53549;SDS011;73079;52.914;-0.982;2023-10-19T06:21:48;11.80;;;2.20;;
53549;SDS011;73079;52.914;-0.982;2023-10-19T06:24:16;10.65;;;3.05;;
53549;SDS011;73079;52.914;-0.982;2023-10-19T06:26:44;13.43;;;3.50;;
53549;SDS011;73079;52.914;-0.982;2023-10-19T06:29:10;8.65;;;2.15;;
53549;SDS011;73079;52.914;-0.982;2023-10-19T06:31:36;8.13;;;2.50;;
53549;SDS011;73079;52.914;-0.982;2023-10-19T06:34:02;15.18;;;2.97;;
53549;SDS011;73079;52.914;-0.982;2023-10-19T06:36:28;12.70;;;3.38;;
53549;SDS011;73079;52.914;-0.982;2023-10-19T06:38:57;11.85;;;2.70;;
53549;SDS011;73079;52.914;-0.982;2023-10-19T06:41:24;14.52;;;2.47;;
53549;SDS011;73079;52.914;-0.982;2023-10-19T06:43:50;14.35;;;2.88;;
53549;SDS011;73079;52.914;-0.982;2023-10-19T06:46:15;15.50;;;3.30;;
53549;SDS011;73079;52.914;-0.982;2023-10-19T06:48:41;11.77;;;3.00;;
53549;SDS011;73079;52.914;-0.982;2023-10-19T06:51:07;15.77;;;3.40;;
53549;SDS011;73079;52.914;-0.982;2023-10-19T06:53:33;13.90;;;3.17;;
53549;SDS011;73079;52.914;-0.982;2023-10-19T06:55:59;14.63;;;3.22;;
53549;SDS011;73079;52.914;-0.982;2023-10-19T06:58:27;19.98;;;3.90;;
53549;SDS011;73079;52.914;-0.982;2023-10-19T07:00:53;12.95;;;3.17;;
53549;SDS011;73079;52.914;-0.982;2023-10-19T07:03:22;19.08;;;3.25;;
53549;SDS011;73079;52.914;-0.982;2023-10-19T07:05:48;15.63;;;3.55;;
53549;SDS011;73079;52.914;-0.982;2023-10-19T07:08:14;21.52;;;3.97;;
53549;SDS011;73079;52.914;-0.982;2023-10-19T07:10:40;14.75;;;4.00;;
53549;SDS011;73079;52.914;-0.982;2023-10-19T07:13:08;20.38;;;4.00;;
53549;SDS011;73079;52.914;-0.982;2023-10-19T07:15:35;14.77;;;3.97;;
53549;SDS011;73079;52.914;-0.982;2023-10-19T07:18:01;16.23;;;4.18;;
53549;SDS011;73079;52.914;-0.982;2023-10-19T07:20:28;18.75;;;5.32;;
53549;SDS011;73079;52.914;-0.982;2023-10-19T07:22:55;36.65;;;6.22;;
53549;SDS011;73079;52.914;-0.982;2023-10-19T07:25:21;33.40;;;6.00;;
53549;SDS011;73079;52.914;-0.982;2023-10-19T07:27:48;35.08;;;6.28;;
53549;SDS011;73079;52.914;-0.982;2023-10-19T07:30:15;18.02;;;5.25;;
53549;SDS011;73079;52.914;-0.982;2023-10-19T07:32:47;20.08;;;5.55;;
53549;SDS011;73079;52.914;-0.982;2023-10-19T07:35:17;21.77;;;5.28;;
53549;SDS011;73079;52.914;-0.982;2023-10-19T07:37:43;21.42;;;4.82;;
53549;SDS011;73079;52.914;-0.982;2023-10-19T07:40:10;19.67;;;5.22;;
53549;SDS011;73079;52.914;-0.982;2023-10-19T07:42:39;20.60;;;4.38;;
53549;SDS011;73079;52.914;-0.982;2023-10-19T07:45:05;15.25;;;4.13;;
53549;SDS011;73079;52.914;-0.982;2023-10-19T07:47:36;12.95;;;4.07;;
53549;SDS011;73079;52.914;-0.982;2023-10-19T07:50:04;20.00;;;4.70;;
53549;SDS011;73079;52.914;-0.982;2023-10-19T07:52:31;12.98;;;4.07;;
53549;SDS011;73079;52.914;-0.982;2023-10-19T07:54:56;17.90;;;4.47;;
53549;SDS011;73079;52.914;-0.982;2023-10-19T07:57:22;14.68;;;4.15;;
53549;SDS011;73079;52.914;-0.982;2023-10-19T07:59:48;13.50;;;3.90;;
53549;SDS011;73079;52.914;-0.982;2023-10-19T08:02:14;22.67;;;5.15;;
53549;SDS011;73079;52.914;-0.982;2023-10-19T08:04:41;15.73;;;3.67;;
53549;SDS011;73079;52.914;-0.982;2023-10-19T08:07:09;17.73;;;3.50;;
53549;SDS011;73079;52.914;-0.982;2023-10-19T08:09:37;17.60;;;3.20;;
53549;SDS011;73079;52.914;-0.982;2023-10-19T08:12:08;13.45;;;2.90;;
53549;SDS011;73079;52.914;-0.982;2023-10-19T08:14:34;16.27;;;3.42;;
53549;SDS011;73079;52.914;-0.982;2023-10-19T08:17:00;7.90;;;1.98;;
53549;SDS011;73079;52.914;-0.982;2023-10-19T08:19:27;5.07;;;1.70;;
53549;SDS011;73079;52.914;-0.982;2023-10-19T08:21:53;9.48;;;2.50;;
53549;SDS011;73079;52.914;-0.982;2023-10-19T08:24:20;5.93;;;1.75;;
53549;SDS011;73079;52.914;-0.982;2023-10-19T08:26:46;8.13;;;2.10;;
53549;SDS011;73079;52.914;-0.982;2023-10-19T08:29:12;9.00;;;2.00;;
53549;SDS011;73079;52.914;-0.982;2023-10-19T08:31:38;11.13;;;2.33;;
53549;SDS011;73079;52.914;-0.982;2023-10-19T08:34:05;9.38;;;2.40;;
53549;SDS011;73079;52.914;-0.982;2023-10-19T08:36:31;10.35;;;2.15;;
53549;SDS011;73079;52.914;-0.982;2023-10-19T08:38:57;9.35;;;2.08;;
53549;SDS011;73079;52.914;-0.982;2023-10-19T08:41:24;10.18;;;1.90;;
53549;SDS011;73079;52.914;-0.982;2023-10-19T08:43:50;7.20;;;2.03;;
53549;SDS011;73079;52.914;-0.982;2023-10-19T08:46:16;8.70;;;1.92;;
53549;SDS011;73079;52.914;-0.982;2023-10-19T08:48:42;11.27;;;2.00;;
53549;SDS011;73079;52.914;-0.982;2023-10-19T08:51:09;8.23;;;1.67;;
53549;SDS011;73079;52.914;-0.982;2023-10-19T08:53:36;9.23;;;1.92;;
53549;SDS011;73079;52.914;-0.982;2023-10-19T08:56:05;8.18;;;2.13;;
53549;SDS011;73079;52.914;-0.982;2023-10-19T08:58:34;8.32;;;1.67;;
53549;SDS011;73079;52.914;-0.982;2023-10-19T09:00:59;9.63;;;2.55;;
53549;SDS011;73079;52.914;-0.982;2023-10-19T09:03:31;7.95;;;2.25;;
53549;SDS011;73079;52.914;-0.982;2023-10-19T09:05:59;8.45;;;2.03;;
53549;SDS011;73079;52.914;-0.982;2023-10-19T09:08:26;12.38;;;2.53;;
53549;SDS011;73079;52.914;-0.982;2023-10-19T09:11:05;15.48;;;2.88;;
53549;SDS011;73079;52.914;-0.982;2023-10-19T09:13:39;13.30;;;3.00;;
53549;SDS011;73079;52.914;-0.982;2023-10-19T09:16:10;15.00;;;3.97;;
53549;SDS011;73079;52.914;-0.982;2023-10-19T09:18:35;9.02;;;2.60;;
53549;SDS011;73079;52.914;-0.982;2023-10-19T09:21:01;6.00;;;2.20;;
53549;SDS011;73079;52.914;-0.982;2023-10-19T09:23:37;12.23;;;3.15;;
53549;SDS011;73079;52.914;-0.982;2023-10-19T09:26:04;11.32;;;2.25;;
53549;SDS011;73079;52.914;-0.982;2023-10-19T09:28:34;12.30;;;3.13;;
53549;SDS011;73079;52.914;-0.982;2023-10-19T09:31:03;9.55;;;2.72;;
53549;SDS011;73079;52.914;-0.982;2023-10-19T09:33:29;9.23;;;2.45;;
53549;SDS011;73079;52.914;-0.982;2023-10-19T09:35:57;14.55;;;3.10;;
53549;SDS011;73079;52.914;-0.982;2023-10-19T09:38:26;10.85;;;2.75;;
53549;SDS011;73079;52.914;-0.982;2023-10-19T09:40:52;9.48;;;2.38;;
53549;SDS011;73079;52.914;-0.982;2023-10-19T09:43:21;13.77;;;3.30;;
53549;SDS011;73079;52.914;-0.982;2023-10-19T09:45:51;18.55;;;3.42;;
53549;SDS011;73079;52.914;-0.982;2023-10-19T09:48:20;15.02;;;3.45;;
53549;SDS011;73079;52.914;-0.982;2023-10-19T09:50:49;18.73;;;3.85;;
53549;SDS011;73079;52.914;-0.982;2023-10-19T09:53:20;14.07;;;2.97;;
53549;SDS011;73079;52.914;-0.982;2023-10-19T09:55:48;16.35;;;3.33;;
53549;SDS011;73079;52.914;-0.982;2023-10-19T09:58:17;15.38;;;3.17;;
53549;SDS011;73079;52.914;-0.982;2023-10-19T10:00:47;15.50;;;4.22;;
53549;SDS011;73079;52.914;-0.982;2023-10-19T10:06:09;13.43;;;2.63;;
53549;SDS011;73079;52.914;-0.982;2023-10-19T10:08:35;11.65;;;3.00;;
53549;SDS011;73079;52.914;-0.982;2023-10-19T10:11:19;11.60;;;3.63;;
53549;SDS011;73079;52.914;-0.982;2023-10-19T10:13:46;12.35;;;2.50;;
53549;SDS011;73079;52.914;-0.982;2023-10-19T10:16:21;9.93;;;2.45;;
53549;SDS011;73079;52.914;-0.982;2023-10-19T10:18:51;13.80;;;2.90;;
53549;SDS011;73079;52.914;-0.982;2023-10-19T10:21:21;10.43;;;2.70;;
53549;SDS011;73079;52.914;-0.982;2023-10-19T10:23:50;12.38;;;3.05;;
53549;SDS011;73079;52.914;-0.982;2023-10-19T10:26:18;11.07;;;2.85;;
53549;SDS011;73079;52.914;-0.982;2023-10-19T10:28:48;10.38;;;2.80;;
53549;SDS011;73079;52.914;-0.982;2023-10-19T10:31:34;14.88;;;3.13;;
53549;SDS011;73079;52.914;-0.982;2023-10-19T10:34:07;17.63;;;3.33;;
53549;SDS011;73079;52.914;-0.982;2023-10-19T10:36:56;12.85;;;3.03;;
53549;SDS011;73079;52.914;-0.982;2023-10-19T10:39:25;20.38;;;4.60;;
53549;SDS011;73079;52.914;-0.982;2023-10-19T10:41:54;15.80;;;4.13;;
53549;SDS011;73079;52.914;-0.982;2023-10-19T10:44:34;10.80;;;2.42;;
53549;SDS011;73079;52.914;-0.982;2023-10-19T10:47:01;15.70;;;3.28;;
53549;SDS011;73079;52.914;-0.982;2023-10-19T10:49:28;13.55;;;3.05;;
53549;SDS011;73079;52.914;-0.982;2023-10-19T10:51:54;15.77;;;3.60;;
53549;SDS011;73079;52.914;-0.982;2023-10-19T10:54:21;13.82;;;3.42;;
53549;SDS011;73079;52.914;-0.982;2023-10-19T10:56:47;11.57;;;3.17;;
53549;SDS011;73079;52.914;-0.982;2023-10-19T10:59:15;11.80;;;3.03;;
53549;SDS011;73079;52.914;-0.982;2023-10-19T11:01:40;17.88;;;4.75;;
53549;SDS011;73079;52.914;-0.982;2023-10-19T11:04:08;9.32;;;3.15;;
53549;SDS011;73079;52.914;-0.982;2023-10-19T11:06:49;12.82;;;3.47;;
53549;SDS011;73079;52.914;-0.982;2023-10-19T11:09:15;13.93;;;3.65;;
53549;SDS011;73079;52.914;-0.982;2023-10-19T11:11:44;11.63;;;3.17;;
53549;SDS011;73079;52.914;-0.982;2023-10-19T11:14:10;15.68;;;3.53;;
53549;SDS011;73079;52.914;-0.982;2023-10-19T11:16:36;18.40;;;3.80;;
53549;SDS011;73079;52.914;-0.982;2023-10-19T11:19:04;19.52;;;4.40;;
53549;SDS011;73079;52.914;-0.982;2023-10-19T11:21:30;17.42;;;3.80;;
53549;SDS011;73079;52.914;-0.982;2023-10-19T11:23:57;21.75;;;5.05;;
53549;SDS011;73079;52.914;-0.982;2023-10-19T11:26:24;11.75;;;3.22;;
53549;SDS011;73079;52.914;-0.982;2023-10-19T11:28:56;12.18;;;2.80;;
53549;SDS011;73079;52.914;-0.982;2023-10-19T11:31:23;11.68;;;3.20;;
53549;SDS011;73079;52.914;-0.982;2023-10-19T11:33:49;11.02;;;3.13;;
53549;SDS011;73079;52.914;-0.982;2023-10-19T11:36:16;19.33;;;4.13;;
53549;SDS011;73079;52.914;-0.982;2023-10-19T11:38:44;13.43;;;3.40;;
53549;SDS011;73079;52.914;-0.982;2023-10-19T11:41:12;12.77;;;3.08;;
53549;SDS011;73079;52.914;-0.982;2023-10-19T11:43:40;16.67;;;4.50;;
53549;SDS011;73079;52.914;-0.982;2023-10-19T11:46:06;16.95;;;4.57;;
53549;SDS011;73079;52.914;-0.982;2023-10-19T11:48:33;13.60;;;3.50;;
53549;SDS011;73079;52.914;-0.982;2023-10-19T11:51:01;18.48;;;4.07;;
53549;SDS011;73079;52.914;-0.982;2023-10-19T11:53:29;15.43;;;4.32;;
53549;SDS011;73079;52.914;-0.982;2023-10-19T11:55:58;16.42;;;3.95;;
53549;SDS011;73079;52.914;-0.982;2023-10-19T11:58:27;17.52;;;3.88;;
53549;SDS011;73079;52.914;-0.982;2023-10-19T12:00:53;12.55;;;3.38;;
53549;SDS011;73079;52.914;-0.982;2023-10-19T12:03:20;13.95;;;3.72;;
53549;SDS011;73079;52.914;-0.982;2023-10-19T12:05:45;16.10;;;3.63;;
53549;SDS011;73079;52.914;-0.982;2023-10-19T12:08:11;11.18;;;3.38;;
53549;SDS011;73079;52.914;-0.982;2023-10-19T12:10:37;13.88;;;3.03;;
53549;SDS011;73079;52.914;-0.982;2023-10-19T12:13:03;11.15;;;2.88;;
53549;SDS011;73079;52.914;-0.982;2023-10-19T12:15:32;19.33;;;4.63;;
53549;SDS011;73079;52.914;-0.982;2023-10-19T12:17:58;17.63;;;4.55;;
53549;SDS011;73079;52.914;-0.982;2023-10-19T12:20:24;15.02;;;5.03;;
53549;SDS011;73079;52.914;-0.982;2023-10-19T12:22:51;24.88;;;4.70;;
53549;SDS011;73079;52.914;-0.982;2023-10-19T12:25:20;19.83;;;4.88;;
53549;SDS011;73079;52.914;-0.982;2023-10-19T12:30:19;14.30;;;3.83;;
53549;SDS011;73079;52.914;-0.982;2023-10-19T12:32:48;21.23;;;3.97;;
53549;SDS011;73079;52.914;-0.982;2023-10-19T12:35:17;25.38;;;5.07;;
53549;SDS011;73079;52.914;-0.982;2023-10-19T12:37:49;16.75;;;3.92;;
53549;SDS011;73079;52.914;-0.982;2023-10-19T12:40:18;16.55;;;3.80;;
53549;SDS011;73079;52.914;-0.982;2023-10-19T12:42:54;17.48;;;4.90;;
53549;SDS011;73079;52.914;-0.982;2023-10-19T12:45:20;17.70;;;3.47;;
53549;SDS011;73079;52.914;-0.982;2023-10-19T12:47:47;16.45;;;4.20;;
53549;SDS011;73079;52.914;-0.982;2023-10-19T12:50:14;18.25;;;5.05;;
53549;SDS011;73079;52.914;-0.982;2023-10-19T12:52:41;16.38;;;4.60;;
53549;SDS011;73079;52.914;-0.982;2023-10-19T12:55:07;19.17;;;4.43;;
53549;SDS011;73079;52.914;-0.982;2023-10-19T12:57:34;13.75;;;3.50;;
53549;SDS011;73079;52.914;-0.982;2023-10-19T13:00:00;16.10;;;3.95;;
53549;SDS011;73079;52.914;-0.982;2023-10-19T13:02:50;16.90;;;4.68;;
53549;SDS011;73079;52.914;-0.982;2023-10-19T13:05:16;18.52;;;4.60;;
53549;SDS011;73079;52.914;-0.982;2023-10-19T13:07:44;14.77;;;4.55;;
53549;SDS011;73079;52.914;-0.982;2023-10-19T13:10:10;24.60;;;4.15;;
53549;SDS011;73079;52.914;-0.982;2023-10-19T13:12:36;17.75;;;4.05;;
53549;SDS011;73079;52.914;-0.982;2023-10-19T13:15:03;20.20;;;4.43;;
53549;SDS011;73079;52.914;-0.982;2023-10-19T13:17:32;16.45;;;4.43;;
53549;SDS011;73079;52.914;-0.982;2023-10-19T13:20:01;16.63;;;4.50;;
53549;SDS011;73079;52.914;-0.982;2023-10-19T13:22:40;21.30;;;4.13;;
53549;SDS011;73079;52.914;-0.982;2023-10-19T13:25:07;16.70;;;4.05;;
53549;SDS011;73079;52.914;-0.982;2023-10-19T13:27:34;21.75;;;4.50;;
53549;SDS011;73079;52.914;-0.982;2023-10-19T13:30:00;16.60;;;4.28;;
53549;SDS011;73079;52.914;-0.982;2023-10-19T13:32:28;16.00;;;4.18;;
53549;SDS011;73079;52.914;-0.982;2023-10-19T13:34:55;13.02;;;4.10;;
53549;SDS011;73079;52.914;-0.982;2023-10-19T13:37:22;15.15;;;3.90;;
53549;SDS011;73079;52.914;-0.982;2023-10-19T13:39:48;15.18;;;3.83;;
53549;SDS011;73079;52.914;-0.982;2023-10-19T13:42:14;16.40;;;3.80;;
53549;SDS011;73079;52.914;-0.982;2023-10-19T13:44:42;16.63;;;4.10;;
53549;SDS011;73079;52.914;-0.982;2023-10-19T13:47:08;15.65;;;3.90;;
53549;SDS011;73079;52.914;-0.982;2023-10-19T13:49:36;21.30;;;4.13;;
53549;SDS011;73079;52.914;-0.982;2023-10-19T13:52:02;15.05;;;3.55;;
53549;SDS011;73079;52.914;-0.982;2023-10-19T13:54:31;22.70;;;4.35;;
53549;SDS011;73079;52.914;-0.982;2023-10-19T13:56:57;15.82;;;4.00;;
53549;SDS011;73079;52.914;-0.982;2023-10-19T13:59:22;13.75;;;3.90;;
53549;SDS011;73079;52.914;-0.982;2023-10-19T14:01:49;17.73;;;3.70;;
53549;SDS011;73079;52.914;-0.982;2023-10-19T14:04:15;12.27;;;3.67;;
53549;SDS011;73079;52.914;-0.982;2023-10-19T14:06:41;14.50;;;3.80;;
53549;SDS011;73079;52.914;-0.982;2023-10-19T14:09:08;17.25;;;4.13;;
53549;SDS011;73079;52.914;-0.982;2023-10-19T14:11:39;13.52;;;3.67;;
53549;SDS011;73079;52.914;-0.982;2023-10-19T14:14:05;15.75;;;3.22;;
53549;SDS011;73079;52.914;-0.982;2023-10-19T14:16:30;11.32;;;3.30;;
53549;SDS011;73079;52.914;-0.982;2023-10-19T14:18:56;14.02;;;3.40;;
53549;SDS011;73079;52.914;-0.982;2023-10-19T14:21:22;9.45;;;3.28;;
53549;SDS011;73079;52.914;-0.982;2023-10-19T14:23:51;15.63;;;4.10;;
53549;SDS011;73079;52.914;-0.982;2023-10-19T14:26:18;11.27;;;3.10;;
53549;SDS011;73079;52.914;-0.982;2023-10-19T14:28:45;12.07;;;3.25;;
53549;SDS011;73079;52.914;-0.982;2023-10-19T14:31:11;12.52;;;3.92;;
53549;SDS011;73079;52.914;-0.982;2023-10-19T14:33:37;15.10;;;4.10;;
53549;SDS011;73079;52.914;-0.982;2023-10-19T14:36:04;14.68;;;3.28;;
53549;SDS011;73079;52.914;-0.982;2023-10-19T14:38:30;13.43;;;3.47;;
53549;SDS011;73079;52.914;-0.982;2023-10-19T14:40:56;17.55;;;4.25;;
53549;SDS011;73079;52.914;-0.982;2023-10-19T14:43:23;14.32;;;4.43;;